createdAt,value
2022-12-13T00:00:51.594Z,-0.99
2022-12-13T00:03:51.665Z,-0.99
2022-12-13T00:06:51.583Z,-0.99
2022-12-13T00:09:51.580Z,-0.99
2022-12-13T00:12:51.582Z,-0.99
2022-12-13T00:15:51.580Z,-0.99
2022-12-13T00:21:51.576Z,-0.99
2022-12-13T00:24:51.576Z,-0.99
2022-12-13T00:27:51.743Z,-0.99
2022-12-13T00:30:51.610Z,-0.99
2022-12-13T00:33:51.565Z,-0.89
2022-12-13T00:36:51.569Z,-0.99
2022-12-13T00:39:51.580Z,-0.99
2022-12-13T00:42:51.566Z,-0.99
2022-12-13T00:45:51.587Z,-0.99
2022-12-13T00:48:51.564Z,-0.99
2022-12-13T00:51:51.563Z,-0.99
2022-12-13T00:54:51.564Z,-0.99
2022-12-13T00:57:51.556Z,-0.99
2022-12-13T01:00:51.553Z,-1.09
2022-12-13T01:03:51.555Z,-1.09
2022-12-13T01:06:51.588Z,-1.09
2022-12-13T01:09:51.549Z,-1.09
2022-12-13T01:12:51.553Z,-1.19
2022-12-13T01:15:51.550Z,-1.19
2022-12-13T01:18:51.551Z,-1.19
2022-12-13T01:21:51.542Z,-1.29
2022-12-13T01:24:51.547Z,-1.29
2022-12-13T01:27:51.549Z,-1.29
2022-12-13T01:30:51.586Z,-1.29
2022-12-13T01:33:51.562Z,-1.29
2022-12-13T01:36:51.570Z,-1.39
2022-12-13T01:39:51.565Z,-1.39
2022-12-13T01:42:51.561Z,-1.39
2022-12-13T01:45:51.608Z,-1.39
2022-12-13T01:48:51.553Z,-1.49
2022-12-13T01:51:51.562Z,-1.49
2022-12-13T01:54:51.556Z,-1.49
2022-12-13T01:57:51.555Z,-1.49
2022-12-13T02:00:51.557Z,-1.59
2022-12-13T02:03:51.554Z,-1.59
2022-12-13T02:06:51.555Z,-1.59
2022-12-13T02:09:56.557Z,-1.69
2022-12-13T02:12:51.550Z,-1.69
2022-12-13T02:15:51.598Z,-1.69
2022-12-13T02:18:51.546Z,-1.69
2022-12-13T02:21:51.559Z,-1.69
2022-12-13T02:24:51.542Z,-1.79
2022-12-13T02:27:51.640Z,-1.79
2022-12-13T02:30:51.574Z,-1.79
2022-12-13T02:33:51.541Z,-1.79
2022-12-13T02:36:51.540Z,-1.79
2022-12-13T02:39:51.537Z,-1.79
2022-12-13T02:42:51.540Z,-1.79
2022-12-13T02:45:51.532Z,-1.79
2022-12-13T02:48:51.537Z,-1.79
2022-12-13T02:51:51.526Z,-1.79
2022-12-13T02:54:51.528Z,-1.89
2022-12-13T02:57:51.531Z,-1.89
2022-12-13T03:00:51.527Z,-1.89
2022-12-13T03:03:51.577Z,-1.89
2022-12-13T03:06:51.522Z,-1.89
2022-12-13T03:09:51.521Z,-1.89
2022-12-13T03:12:51.516Z,-1.89
2022-12-13T03:15:51.575Z,-1.89
2022-12-13T03:18:51.517Z,-1.89
2022-12-13T03:21:51.518Z,-1.89
2022-12-13T03:24:51.512Z,-1.99
2022-12-13T03:27:51.522Z,-1.99
2022-12-13T03:30:51.623Z,-1.99
2022-12-13T03:33:51.514Z,-1.99
2022-12-13T03:36:51.523Z,-2.09
2022-12-13T03:39:51.507Z,-2.09
2022-12-13T03:42:51.511Z,-2.19
2022-12-13T03:45:51.511Z,-2.19
2022-12-13T03:48:51.505Z,-2.19
2022-12-13T03:51:51.496Z,-2.19
2022-12-13T03:54:51.504Z,-2.29
2022-12-13T03:57:51.503Z,-2.29
2022-12-13T04:00:51.503Z,-2.29
2022-12-13T04:03:51.496Z,-2.29
2022-12-13T04:06:51.496Z,-2.29
2022-12-13T04:09:51.491Z,-2.29
2022-12-13T04:12:51.495Z,-2.29
2022-12-13T04:15:51.535Z,-2.39
2022-12-13T04:21:51.492Z,-2.29
2022-12-13T04:24:52.068Z,-2.39
2022-12-13T04:27:51.511Z,-2.39
2022-12-13T04:30:52.653Z,-2.39
2022-12-13T04:33:51.521Z,-2.39
2022-12-13T04:36:51.491Z,-2.39
2022-12-13T04:39:51.488Z,-2.39
2022-12-13T04:42:54.253Z,-2.39
2022-12-13T04:45:51.521Z,-2.49
2022-12-13T04:48:51.491Z,-2.49
2022-12-13T04:51:54.674Z,-2.49
2022-12-13T04:54:55.500Z,-2.49
2022-12-13T04:57:51.515Z,-2.49
2022-12-13T05:00:51.565Z,-2.49
2022-12-13T05:03:51.496Z,-2.49
2022-12-13T05:06:51.498Z,-2.49
2022-12-13T05:09:51.493Z,-2.49
2022-12-13T05:12:51.491Z,-2.59
2022-12-13T05:15:55.117Z,-2.59
2022-12-13T05:18:52.566Z,-2.59
2022-12-13T05:21:52.437Z,-2.59
2022-12-13T05:24:52.425Z,-2.59
2022-12-13T05:27:56.851Z,-2.59
2022-12-13T05:30:52.446Z,-2.69
2022-12-13T05:33:52.430Z,-2.69
2022-12-13T05:36:52.433Z,-2.69
2022-12-13T05:39:52.404Z,-2.69
2022-12-13T05:42:52.404Z,-2.69
2022-12-13T05:45:52.418Z,-2.69
2022-12-13T05:48:52.404Z,-2.69
2022-12-13T05:51:52.392Z,-2.69
2022-12-13T05:54:52.392Z,-2.59
2022-12-13T05:57:52.399Z,-2.59
2022-12-13T06:00:52.394Z,-2.59
2022-12-13T06:03:52.502Z,-2.59
2022-12-13T06:06:52.420Z,-2.59
2022-12-13T06:09:52.387Z,-2.59
2022-12-13T06:15:52.386Z,-2.59
2022-12-13T06:18:56.148Z,-2.59
2022-12-13T06:21:52.388Z,-2.59
2022-12-13T06:24:52.384Z,-2.59
2022-12-13T06:27:52.382Z,-2.59
2022-12-13T06:30:52.472Z,-2.59
2022-12-13T06:33:52.390Z,-2.59
2022-12-13T06:36:52.380Z,-2.59
2022-12-13T06:39:52.372Z,-2.59
2022-12-13T06:42:52.382Z,-2.59
2022-12-13T06:48:52.374Z,-2.69
2022-12-13T06:51:52.376Z,-2.69
2022-12-13T06:54:56.838Z,-2.69
2022-12-13T06:57:52.374Z,-2.69
2022-12-13T07:00:52.380Z,-2.59
2022-12-13T07:03:52.385Z,-2.59
2022-12-13T07:06:52.424Z,-2.59
2022-12-13T07:09:52.387Z,-2.59
2022-12-13T07:12:52.387Z,-2.59
2022-12-13T07:15:52.473Z,-2.69
2022-12-13T07:18:52.398Z,-2.69
2022-12-13T07:21:52.433Z,-2.69
2022-12-13T07:24:52.403Z,-2.69
2022-12-13T07:27:52.409Z,-2.69
2022-12-13T07:30:52.427Z,-2.69
2022-12-13T07:33:52.395Z,-2.69
2022-12-13T07:36:52.401Z,-2.69
2022-12-13T07:39:52.726Z,-2.69
2022-12-13T07:42:52.398Z,-2.69
2022-12-13T07:45:52.401Z,-2.69
2022-12-13T07:48:52.394Z,-2.69
2022-12-13T07:51:52.404Z,-2.79
2022-12-13T07:54:52.394Z,-2.79
2022-12-13T07:57:52.401Z,-2.79
2022-12-13T08:00:52.400Z,-2.69
2022-12-13T08:03:52.395Z,-2.69
2022-12-13T08:09:53.066Z,-2.69
2022-12-13T08:12:52.391Z,-2.69
2022-12-13T08:15:52.422Z,-2.69
2022-12-13T08:21:54.925Z,-2.69
2022-12-13T08:24:52.379Z,-2.69
2022-12-13T08:27:52.379Z,-2.69
2022-12-13T08:30:52.376Z,-2.69
2022-12-13T08:33:52.380Z,-2.69
2022-12-13T08:36:52.386Z,-2.69
2022-12-13T08:39:52.383Z,-2.59
2022-12-13T08:42:52.383Z,-2.59
2022-12-13T08:45:52.390Z,-2.59
2022-12-13T08:48:52.410Z,-2.59
2022-12-13T08:51:52.395Z,-2.59
2022-12-13T08:54:52.379Z,-2.59
2022-12-13T08:57:52.385Z,-2.59
2022-12-13T09:03:52.386Z,-2.59
2022-12-13T09:06:52.389Z,-2.59
2022-12-13T09:09:54.657Z,-2.59
2022-12-13T09:12:52.410Z,-2.59
2022-12-13T09:15:52.496Z,-2.49
2022-12-13T09:18:54.686Z,-2.49
2022-12-13T09:21:52.387Z,-2.49
2022-12-13T09:24:52.401Z,-2.39
2022-12-13T09:27:52.392Z,-2.39
2022-12-13T09:30:52.400Z,-2.39
2022-12-13T09:33:52.404Z,-2.39
2022-12-13T09:36:52.400Z,-2.29
2022-12-13T09:39:54.888Z,-2.29
2022-12-13T09:43:04.697Z,-2.29
2022-12-13T09:48:52.384Z,-2.19
2022-12-13T09:52:04.494Z,-2.19
2022-12-13T09:54:52.380Z,-2.09
2022-12-13T09:57:52.373Z,-2.09
2022-12-13T10:00:52.385Z,-1.99
2022-12-13T10:03:52.375Z,-1.99
2022-12-13T10:06:52.375Z,-1.99
2022-12-13T10:09:52.376Z,-1.89
2022-12-13T10:12:52.377Z,-1.89
2022-12-13T10:15:52.380Z,-1.89
2022-12-13T10:18:52.367Z,-1.89
2022-12-13T10:21:52.368Z,-1.79
2022-12-13T10:24:52.387Z,-1.79
2022-12-13T10:27:52.368Z,-1.79
2022-12-13T10:33:52.359Z,-1.69
2022-12-13T10:36:52.365Z,-1.69
2022-12-13T10:39:52.360Z,-1.69
2022-12-13T10:45:52.450Z,-1.59
2022-12-13T10:48:52.362Z,-1.49
2022-12-13T10:51:52.367Z,-1.49
2022-12-13T10:54:52.355Z,-1.39
2022-12-13T10:57:52.351Z,-1.39
2022-12-13T11:00:52.371Z,-1.39
2022-12-13T11:03:52.343Z,-1.29
2022-12-13T11:06:52.356Z,-1.29
2022-12-13T11:09:53.058Z,-1.29
2022-12-13T11:12:52.335Z,-1.29
2022-12-13T11:15:52.339Z,-1.19
2022-12-13T11:18:52.339Z,-1.19
2022-12-13T11:21:52.338Z,-1.19
2022-12-13T11:24:52.334Z,-1.19
2022-12-13T11:27:52.334Z,-1.09
2022-12-13T11:30:52.347Z,-1.09
2022-12-13T11:33:52.327Z,-1.09
2022-12-13T11:36:52.331Z,-1.09
2022-12-13T11:39:52.334Z,-1.09
2022-12-13T11:42:52.326Z,-0.99
2022-12-13T11:45:52.350Z,-0.99
2022-12-13T11:48:52.315Z,-0.99
2022-12-13T11:51:52.316Z,-0.99
2022-12-13T11:54:52.318Z,-0.99
2022-12-13T11:57:52.317Z,-0.99
2022-12-13T12:00:52.308Z,-0.99
2022-12-13T12:03:52.362Z,-0.89
2022-12-13T12:06:52.312Z,-0.89
2022-12-13T12:09:52.304Z,-0.89
2022-12-13T12:12:52.302Z,-0.89
2022-12-13T12:15:52.300Z,-0.79
2022-12-13T12:18:52.297Z,-0.79
2022-12-13T12:24:52.297Z,-0.79
2022-12-13T12:27:52.306Z,-0.79
2022-12-13T12:30:52.318Z,-0.79
2022-12-13T12:33:52.295Z,-0.69
2022-12-13T12:36:52.298Z,-0.69
2022-12-13T12:39:52.290Z,-0.69
2022-12-13T12:43:13.694Z,-0.69
2022-12-13T12:45:56.657Z,-0.69
2022-12-13T12:49:01.002Z,-0.69
2022-12-13T12:51:52.286Z,-0.69
2022-12-13T12:54:52.284Z,-0.69
2022-12-13T12:57:52.281Z,-0.69
2022-12-13T13:00:52.277Z,-0.69
2022-12-13T13:03:52.364Z,-0.69
2022-12-13T13:06:52.272Z,-0.69
2022-12-13T13:09:54.771Z,-0.69
2022-12-13T13:12:52.297Z,-0.69
2022-12-13T13:15:52.297Z,-0.69
2022-12-13T13:18:52.281Z,-0.69
2022-12-13T13:21:52.279Z,-0.69
2022-12-13T13:24:52.280Z,-0.69
2022-12-13T13:27:52.285Z,-0.59
2022-12-13T13:30:52.311Z,-0.59
2022-12-13T13:33:52.282Z,-0.59
2022-12-13T13:36:52.272Z,-0.59
2022-12-13T13:39:52.293Z,-0.59
2022-12-13T13:42:52.271Z,-0.59
2022-12-13T13:45:52.267Z,-0.59
2022-12-13T13:48:52.281Z,-0.59
2022-12-13T13:52:23.658Z,-0.59
2022-12-13T13:54:52.278Z,-0.59
2022-12-13T13:58:09.571Z,-0.59
2022-12-13T14:00:52.276Z,-0.59
2022-12-13T14:03:52.301Z,-0.59
2022-12-13T14:06:52.292Z,-0.59
2022-12-13T14:09:52.283Z,-0.69
2022-12-13T14:12:52.303Z,-0.69
2022-12-13T14:15:52.304Z,-0.69
2022-12-13T14:18:52.272Z,-0.69
2022-12-13T14:21:52.277Z,-0.69
2022-12-13T14:24:52.282Z,-0.69
2022-12-13T14:27:52.307Z,-0.69
2022-12-13T14:30:57.024Z,-0.79
2022-12-13T14:33:52.290Z,-0.79
2022-12-13T14:36:52.287Z,-0.79
2022-12-13T14:39:52.287Z,-0.79
2022-12-13T14:42:52.285Z,-0.79
2022-12-13T14:45:52.276Z,-0.79
2022-12-13T14:48:52.271Z,-0.79
2022-12-13T14:51:52.276Z,-0.79
2022-12-13T14:54:58.076Z,-0.79
2022-12-13T14:57:52.284Z,-0.79
2022-12-13T15:00:52.377Z,-0.89
2022-12-13T15:03:52.296Z,-0.89
2022-12-13T15:06:52.277Z,-0.89
2022-12-13T15:09:52.269Z,-0.89
2022-12-13T15:12:52.273Z,-0.89
2022-12-13T15:15:52.291Z,-0.99
2022-12-13T15:18:52.278Z,-0.99
2022-12-13T15:21:54.082Z,-0.99
2022-12-13T15:24:52.270Z,-0.99
2022-12-13T15:27:52.284Z,-0.99
2022-12-13T15:30:52.273Z,-0.99
2022-12-13T15:33:52.281Z,-0.99
2022-12-13T15:36:52.284Z,-1.09
2022-12-13T15:39:52.272Z,-1.09
2022-12-13T15:42:52.272Z,-1.09
2022-12-13T15:45:52.313Z,-1.09
2022-12-13T15:48:52.262Z,-1.09
2022-12-13T15:51:52.275Z,-1.09
2022-12-13T15:54:52.267Z,-1.09
2022-12-13T15:57:52.259Z,-1.09
2022-12-13T16:00:52.295Z,-1.09
2022-12-13T16:03:52.316Z,-1.09
2022-12-13T16:06:52.267Z,-1.09
2022-12-13T16:12:52.265Z,-1.09
2022-12-13T16:15:52.263Z,-1.09
2022-12-13T16:18:52.257Z,-1.09
2022-12-13T16:21:52.258Z,-1.09
2022-12-13T16:27:52.255Z,-1.09
2022-12-13T16:30:52.255Z,-1.09
2022-12-13T16:33:52.266Z,-1.09
2022-12-13T16:36:52.255Z,-1.09
2022-12-13T16:39:52.241Z,-1.19
2022-12-13T16:42:52.224Z,-1.19
2022-12-13T16:45:52.283Z,-1.19
2022-12-13T16:48:52.233Z,-1.19
2022-12-13T16:51:52.284Z,-1.19
2022-12-13T16:54:52.239Z,-1.19
2022-12-13T16:57:52.215Z,-1.29
2022-12-13T17:00:52.231Z,-1.29
2022-12-13T17:03:52.222Z,-1.29
2022-12-13T17:06:54.715Z,-1.29
2022-12-13T17:09:52.208Z,-1.29
2022-12-13T17:12:52.214Z,-1.29
2022-12-13T17:15:59.259Z,-1.29
2022-12-13T17:18:52.216Z,-1.29
2022-12-13T17:21:52.203Z,-1.29
2022-12-13T17:24:52.207Z,-1.29
2022-12-13T17:27:52.212Z,-1.29
2022-12-13T17:30:54.758Z,-1.29
2022-12-13T17:33:52.205Z,-1.29
2022-12-13T17:36:52.203Z,-1.29
2022-12-13T17:39:52.202Z,-1.39
2022-12-13T17:42:52.258Z,-1.39
2022-12-13T17:45:52.299Z,-1.29
2022-12-13T17:48:52.191Z,-1.29
2022-12-13T17:51:52.189Z,-1.29
2022-12-13T17:54:52.188Z,-1.29
2022-12-13T17:57:52.189Z,-1.29
2022-12-13T18:00:52.195Z,-1.29
2022-12-13T18:03:52.190Z,-1.29
2022-12-13T18:06:52.194Z,-1.19
2022-12-13T18:09:52.181Z,-1.19
2022-12-13T18:12:52.188Z,-1.19
2022-12-13T18:15:52.231Z,-1.19
2022-12-13T18:18:54.638Z,-1.19
2022-12-13T18:21:52.171Z,-1.19
2022-12-13T18:24:52.169Z,-1.19
2022-12-13T18:27:54.941Z,-1.19
2022-12-13T18:30:52.189Z,-1.19
2022-12-13T18:33:52.161Z,-1.19
2022-12-13T18:36:52.164Z,-1.19
2022-12-13T18:39:55.006Z,-1.29
2022-12-13T18:42:52.164Z,-1.29
2022-12-13T18:45:52.163Z,-1.29
2022-12-13T18:51:52.163Z,-1.29
2022-12-13T18:54:54.330Z,-1.29
2022-12-13T18:57:52.160Z,-1.19
2022-12-13T19:00:52.169Z,-1.29
2022-12-13T19:03:52.157Z,-1.29
2022-12-13T19:06:52.147Z,-1.29
2022-12-13T19:09:54.586Z,-1.29
2022-12-13T19:12:52.149Z,-1.29
2022-12-13T19:18:52.163Z,-1.29
2022-12-13T19:21:52.153Z,-1.29
2022-12-13T19:24:52.145Z,-1.29
2022-12-13T19:27:52.145Z,-1.29
2022-12-13T19:30:52.185Z,-1.29
2022-12-13T19:33:52.188Z,-1.29
2022-12-13T19:36:52.151Z,-1.29
2022-12-13T19:39:52.144Z,-1.39
2022-12-13T19:42:52.140Z,-1.39
2022-12-13T19:45:52.145Z,-1.39
2022-12-13T19:48:52.146Z,-1.39
2022-12-13T19:51:52.144Z,-1.39
2022-12-13T19:54:52.138Z,-1.39
2022-12-13T19:57:52.136Z,-1.39
2022-12-13T20:03:52.137Z,-1.39
2022-12-13T20:06:52.132Z,-1.39
2022-12-13T20:09:52.130Z,-1.39
2022-12-13T20:12:52.127Z,-1.39
2022-12-13T20:15:52.199Z,-1.39
2022-12-13T20:18:52.131Z,-1.49
2022-12-13T20:21:56.670Z,-1.49
2022-12-13T20:24:52.123Z,-1.49
2022-12-13T20:27:52.151Z,-1.49
2022-12-13T20:30:52.173Z,-1.49
2022-12-13T20:33:52.130Z,-1.49
2022-12-13T20:36:52.142Z,-1.49
2022-12-13T20:39:52.127Z,-1.49
2022-12-13T20:42:52.134Z,-1.49
2022-12-13T20:45:52.133Z,-1.49
2022-12-13T20:48:52.158Z,-1.49
2022-12-13T20:51:52.140Z,-1.49
2022-12-13T20:57:52.130Z,-1.49
2022-12-13T21:00:52.165Z,-1.49
2022-12-13T21:03:52.125Z,-1.49
2022-12-13T21:06:52.122Z,-1.49
2022-12-13T21:09:52.123Z,-1.49
2022-12-13T21:12:52.123Z,-1.49
2022-12-13T21:15:52.183Z,-1.49
2022-12-13T21:18:52.118Z,-1.59
2022-12-13T21:21:52.123Z,-1.59
2022-12-13T21:24:52.125Z,-1.49
2022-12-13T21:27:52.108Z,-1.49
2022-12-13T21:30:52.109Z,-1.49
2022-12-13T21:33:52.107Z,-1.49
2022-12-13T21:36:52.358Z,-1.49
2022-12-13T21:39:52.107Z,-1.49
2022-12-13T21:42:52.110Z,-1.49
2022-12-13T21:45:52.165Z,-1.49
2022-12-13T21:48:52.106Z,-1.49
2022-12-13T21:51:52.099Z,-1.49
2022-12-13T21:54:59.186Z,-1.49
2022-12-13T21:57:52.113Z,-1.49
2022-12-13T22:00:52.123Z,-1.49
2022-12-13T22:03:52.103Z,-1.49
2022-12-13T22:06:52.107Z,-1.49
2022-12-13T22:09:52.098Z,-1.49
2022-12-13T22:12:52.123Z,-1.49
2022-12-13T22:15:52.109Z,-1.49
2022-12-13T22:18:52.103Z,-1.49
2022-12-13T22:21:52.104Z,-1.49
2022-12-13T22:24:53.626Z,-1.49
2022-12-13T22:27:52.110Z,-1.49
2022-12-13T22:30:52.113Z,-1.49
2022-12-13T22:33:52.115Z,-1.49
2022-12-13T22:36:52.109Z,-1.49
2022-12-13T22:39:52.112Z,-1.49
2022-12-13T22:42:52.107Z,-1.49
2022-12-13T22:45:52.115Z,-1.49
2022-12-13T22:48:52.097Z,-1.49
2022-12-13T22:51:52.094Z,-1.49
2022-12-13T22:54:52.094Z,-1.49
2022-12-13T22:57:52.090Z,-1.49
2022-12-13T23:00:52.158Z,-1.49
2022-12-13T23:03:52.089Z,-1.49
2022-12-13T23:06:52.087Z,-1.49
2022-12-13T23:09:52.095Z,-1.49
2022-12-13T23:12:52.087Z,-1.49
2022-12-13T23:15:52.092Z,-1.49
2022-12-13T23:19:01.313Z,-1.49
2022-12-13T23:21:52.105Z,-1.49
2022-12-13T23:24:52.086Z,-1.49
2022-12-13T23:27:52.075Z,-1.49
2022-12-13T23:30:52.111Z,-1.49
2022-12-13T23:33:52.086Z,-1.49
2022-12-13T23:36:52.070Z,-1.49
2022-12-13T23:39:52.084Z,-1.49
2022-12-13T23:42:52.069Z,-1.49
2022-12-13T23:45:52.158Z,-1.49
2022-12-13T23:48:52.065Z,-1.49
2022-12-13T23:54:52.063Z,-1.39
2022-12-13T23:57:52.072Z,-1.39
